Miha Vipotnik

Chefscout - Olimpija Ljubljana
20 Nov 2027
Samstag
Verarbeitung

Persönlichkeit

Anpassungsfähigkeit (1) Ehrgeiz (11) Kontroverse (19) Loyalität (9) Druck (13) Professionalität (15) Fairness (18) Temperament (10)

Profil

Trainerstil Demokratisch
Lizenz Nationale B
Entschlossenheit 7
Menschenführung 7
Motivation 11
Disziplin 4
Arbeitszufriedenheit
100%
Ermüdung
0%
Rolle Chefscout
Gehalt 59.3K p/W
Vertrag 14.03.2029

Leistung

Verhalten Gut
Trainingseffektivität
41%
Spielerentwicklung
55%
Verletzungsprävention
35%
Taktische Umsetzung
60%

Letzte Ereignisse

Nahm an einer Scouting-Besprechung teil jetzt
Nahm an einer Scouting-Besprechung teil jetzt
Empfahl ein Transferziel jetzt
Nahm an einer Scouting-Besprechung teil 7T her
Nahm an einer Scouting-Besprechung teil 7T her
Empfahl ein Transferziel 7T her
Empfahl ein Transferziel 7T her
Empfahl ein Transferziel 7T her

Aktuell beobachtet

131
Spieler Verein Status Fähigkeit Vertrauen Beobachtet Zuletzt beobachtet Letzte Stimme
Luka Krajnc ND Gorica Aktiv 108 / 111 58% 1 30.08.2027 Befürworten
Francesco Gelli Frosinone Aktiv 114 / 115 40% 1 02.08.2027 -
Jérémy Le Douaron Palermo Aktiv 120 / 121 40% 1 02.08.2027 -
Bjarki Bjarkason Südtirol Verloren 112 / 120 40% 1 17.07.2027 -
Terry Devlin Portsmouth Aktiv 121 / 131 40% 1 17.07.2027 -
Tammer Kumar West Bromwich Albion Aktiv 111 / 124 40% 1 16.07.2027 -
Danilo Veiga Lecce Aktiv 129 / 137 40% 1 14.07.2027 -
Ramón Terrats Getafe Aktiv 149 / 147 40% 1 14.07.2027 -
Tilen Letonja NK Celje Aktiv 104 / 115 58% 1 12.07.2027 Befürworten
Marco Tumminello Benevento Aktiv 118 / 107 40% 1 06.07.2027 -
Kamil Manseri Koper Aktiv 92 / 111 58% 1 01.06.2027 Befürworten
Giuseppe Sibilli Juve Stabia Verloren 114 / 120 40% 1 01.06.2027 -
Brayan Gil Baltika Verloren 131 / 122 40% 2 31.05.2027 -
Silvio Merkaj Vicenza Aktiv 112 / 109 40% 1 31.05.2027 -
Thalys Almería Aktiv 114 / 122 40% 2 30.05.2027 -
Luca Moro Padova Aktiv 119 / 123 40% 2 30.05.2027 -
Rafiki Saïd Wolverhampton Verloren 128 / 110 40% 2 29.05.2027 -
Ettore Gliozzi Mantova Verloren 127 / 117 40% 1 29.05.2027 -
Leonardo Candellone Juve Stabia Aktiv 111 / 113 40% 1 27.05.2027 -
Amin Sarr Hellas Verona Aktiv 125 / 130 40% 1 26.05.2027 -
Omri Gandelman Lecce Aktiv 132 / 133 40% 1 25.05.2027 -
Giorgi Kvernadze Frosinone Aktiv 116 / 123 40% 1 25.05.2027 -
Vitinha Genoa Aktiv 128 / 141 40% 1 24.05.2027 -
Chinedu Geoffrey Krylya Sovetov Aktiv 109 / 124 40% 5 22.05.2027 -
Bernat Guiu Virtus Entella Aktiv 124 / 107 40% 1 22.05.2027 -
Simone Rabbi Ravenna Aktiv 112 / 109 40% 1 21.05.2027 -
John Yeboah Venezia Aktiv 118 / 111 40% 1 21.05.2027 -
Ronwen Khune Black Aces Aktiv 111 / 87 40% 2 19.05.2027 -
Sindre Walle Egeli Nottingham Forest Aktiv 138 / 140 40% 3 17.05.2027 -
Oumar Camara Vitoria Guimaraes Aktiv 126 / 121 40% 1 15.05.2027 -
Dario Vizinger NK Maribor Aktiv 108 / 102 40% 3 13.05.2027 -
Denzel Jubitana Neftchi Aktiv 123 / 110 40% 5 12.05.2027 -
Marc Gual Kairat Aktiv 114 / 113 40% 1 12.05.2027 -
Luca Orellano Atlético Madrid Aktiv 145 / 127 40% 2 10.05.2027 -
Georgy Melkadze Akhmat Grozny Aktiv 106 / 109 40% 2 10.05.2027 -
Gal Kranjčič Farense Aktiv 109 / 103 40% 1 07.05.2027 -
Rüstəm Əhmədzadə Sumgayit Aktiv 106 / 108 40% 1 03.05.2027 -
Jere Vrcić Birkirkara Aktiv 92 / 94 40% 3 01.05.2027 -
Alexandr Rudenko Lokomotiv Moscow Aktiv 119 / 126 40% 3 01.05.2027 -
Isa Sakamoto Westerlo Aktiv 119 / 124 40% 2 01.05.2027 -
Alou Doumbia Djoliba Aktiv 103 / 101 40% 1 01.05.2027 -
Agustín Hausch Caracas Aktiv 121 / 114 40% 2 28.04.2027 -
Joel Orlando Real Sociedad Aktiv 112 / 112 40% 1 27.04.2027 -
Jalen Blesa Rio Ave Aktiv 123 / 116 40% 5 25.04.2027 -
Liel Abada Charlotte Football Club Aktiv 116 / 126 40% 2 25.04.2027 -
Bahlul Mammadov Inter Aktiv 103 / 104 40% 3 20.04.2027 -
Maksim Samorodov Akhmat Grozny Aktiv 115 / 124 40% 1 19.04.2027 -
Paris Brunner Monaco Aktiv 110 / 118 40% 1 16.04.2027 -
Dardan Shabanhaxhaj Rubin Aktiv 115 / 109 40% 1 15.04.2027 -
Davit Volkovi Zira Aktiv 100 / 112 40% 2 12.04.2027 -
Cyriaque Irié Borussia Mönchengladbach Aktiv 116 / 129 40% 1 12.04.2027 -
Mahmoud Diasty Wadi Degla Aktiv 87 / 97 40% 1 05.04.2027 -
Eric Ramírez Carabobo Aktiv 96 / 118 40% 1 04.04.2027 -
Sifiso Mkhize Ajax Cape Town Aktiv 102 / 115 40% 1 02.04.2027 -
Helinho Toluca Aktiv 138 / 133 40% 1 02.04.2027 -
Jhon Murillo America de Cali Aktiv 116 / 127 40% 1 02.04.2027 -
Yegor Golenkov Rostov Aktiv 128 / 120 40% 5 01.04.2027 -
Mohamed Konaté Akhmat Grozny Aktiv 124 / 105 40% 1 28.03.2027 -
Jáder Obrian Santa Fe Aktiv 110 / 130 40% 1 27.03.2027 -
Soltmurad Bakaev Rodina Aktiv 104 / 109 40% 2 22.03.2027 -
Timofey Shipunov Ufa Aktiv 92 / 89 40% 1 22.03.2027 -
Gorka Gorosabel Real Sociedad Aktiv 116 / 107 40% 1 19.03.2027 -
Isaac Matondo Koper Aktiv 104 / 103 40% 2 16.03.2027 Mehr Infos nötig
Yusuke Matsuo VfL Wolfsburg Aktiv 125 / 129 40% 1 13.03.2027 -
Nathan Fogaça Fortaleza Aktiv 138 / 136 40% 1 11.03.2027 -
Tio Cipot NK Maribor Aktiv 119 / 129 40% 3 09.03.2027 -
Elias Manoel Tijuana Aktiv 98 / 107 40% 1 08.03.2027 -
Isma Ruiz Córdoba Aktiv 126 / 121 40% 1 27.02.2027 -
Job Ochieng Real Sociedad Aktiv 97 / 113 40% 4 22.02.2027 -
Luka Bijol NK Domzale Aktiv 101 / 119 40% 1 18.02.2027 -
Imrân Louza Watford Aktiv 140 / 122 40% 1 18.02.2027 -
Reda Khadra Qarabag Aktiv 135 / 131 40% 1 16.02.2027 -
Iker Pozo Rodina Aktiv 123 / 110 40% 1 10.02.2027 -
Jonathan Okoronkwo Torpedo Moscow Aktiv 97 / 102 40% 2 08.02.2027 -
Bruno Figueiredo Zabbar St. Patrick Aktiv 99 / 82 40% 1 05.02.2027 -
Andraž Ruedl Koper Aktiv 113 / 110 40% 1 05.02.2027 -
Robert Mejía Orenburg Aktiv 121 / 109 40% 1 04.02.2027 -
Ansor Khabibov Ryazan Aktiv 84 / 96 40% 1 02.02.2027 -
Gevork Sarkisyan Saturn Aktiv 70 / 81 40% 1 18.01.2027 -
Blaž Kramer NK Celje Aktiv 111 / 107 40% 2 03.01.2027 -
Vyacheslav Grulev Nizhniy Novgorod Aktiv 121 / 114 40% 2 31.12.2026 -
Ákos Zuigeber Honved Aktiv 90 / 96 40% 2 30.12.2026 -
Mikhail Gainov Dinamo Stavropol Aktiv 78 / 87 40% 2 26.12.2026 -
Mikhail Ignatov Sochi Aktiv 121 / 105 40% 2 25.12.2026 -
Ildi Gruda Egnatia Rrogozhinë Aktiv 103 / 107 40% 1 25.12.2026 -
Tenton Yenne Baltika Aktiv 96 / 102 40% 6 24.12.2026 -
Miloš Jovičić Zabbar St. Patrick Aktiv 95 / 104 40% 1 19.12.2026 -
Gregor Medle NK Krka Aktiv 81 / 96 40% 3 18.12.2026 -
Umeh Emmanuel Fatih Karagumruk Aktiv 111 / 113 40% 1 17.12.2026 -
Troy Parrott Betis Aktiv 137 / 147 40% 2 12.12.2026 -
Sandi Elsnik NK Domzale Aktiv 108 / 107 40% 7 11.12.2026 -
Lejs Pličanić Rudar Velenje Aktiv 74 / 96 40% 1 11.12.2026 -
Stian Džumhur NK Krka Aktiv 92 / 95 40% 4 10.12.2026 -
Yeangel Montero Naxxar Lions Aktiv 117 / 107 40% 4 10.12.2026 -
Omar Popov Dinamo St Petersburg Aktiv 71 / 87 40% 1 09.12.2026 -
Ekain Orobengoa Real Sociedad Aktiv 92 / 114 40% 1 06.12.2026 -
Tomás Chancalay Minnesota United FC Aktiv 132 / 127 40% 2 27.11.2026 -
Ali Youssef Apollon Aktiv 113 / 126 40% 2 24.11.2026 -
Eren Aydın Zira Aktiv 121 / 124 40% 1 21.11.2026 -
Marko Čavara ND Gorica Aktiv 87 / 88 40% 1 20.11.2026 -
Diamanka Senghor Mosta Aktiv 90 / 91 40% 1 19.11.2026 -
Paul Glatzel Swindon Town Aktiv 83 / 104 40% 3 18.11.2026 -
Marvin Akahomen Basel Aktiv 98 / 107 40% 1 17.11.2026 -
Sabur Ali Rudar Velenje Aktiv 82 / 99 40% 1 17.11.2026 -
Max Svensson Penafiel Aktiv 102 / 100 40% 2 12.11.2026 -
Marko Brkić NK Krka Aktiv 95 / 91 40% 3 11.11.2026 -
Martim Cunha Porto Aktiv 108 / 110 40% 1 08.11.2026 -
Martin Wober Mattersburg Aktiv 108 / 114 40% 1 07.11.2026 -
Danila Shilov Dinamo Stavropol Aktiv 87 / 102 40% 1 05.11.2026 -
Lewis McCann Fleetwood Town Aktiv 110 / 107 40% 1 04.11.2026 -
Jacques Siwe Rubin Aktiv 117 / 106 40% 1 03.11.2026 -
Dmitry Lesnikov Volgar Aktiv 88 / 99 40% 1 03.11.2026 -
Zoltan Bese Haladas Aktiv 97 / 119 40% 1 03.11.2026 -
Armandas Kučys NK Celje Aktiv 111 / 122 40% 2 30.10.2026 -
Adam Vošnjak Rudar Velenje Aktiv 89 / 87 40% 1 30.10.2026 -
Bojan Radulović Huddersfield Town Aktiv 122 / 111 40% 2 26.10.2026 -
Yegor Kortsov Dinamo Brest Aktiv 114 / 116 40% 1 25.10.2026 -
Dilan Ortíz Ufa Aktiv 90 / 94 40% 1 21.10.2026 -
Niko Domjanić NK Krka Aktiv 97 / 83 40% 2 20.10.2026 -
Josh Kelly Zlate Moravce Aktiv 80 / 87 40% 1 18.10.2026 -
Enzo Larrosa Independiente Medellin Aktiv 99 / 97 40% 1 17.10.2026 -
Leo Rimac Koper Aktiv 112 / 109 40% 2 13.10.2026 -
Prosper Obiora Nwachukwu ND Gorica Aktiv 92 / 87 40% 2 29.09.2026 -
Peter Thiong'o Kakamega Homeboyz Aktiv 97 / 70 40% 1 29.09.2026 -
Sam Nombe Milton Keynes Dons Aktiv 108 / 107 40% 2 24.09.2026 -
Alvin Mangeni Kenya Police Aktiv 62 / 83 40% 1 18.09.2026 -
Magnus Lankhof Dahlby Stabaek Aktiv 115 / 95 40% 1 16.09.2026 -
Thiago Perugini San Lorenzo Aktiv 87 / 118 40% 1 09.09.2026 -
Musa Qurbanlı Qarabag Aktiv 95 / 97 40% 1 30.08.2026 -
Shota Shekiladze Dila Aktiv 90 / 116 40% 1 29.08.2026 -
Gianluca Pugliese Güemes Aktiv 103 / 114 40% 1 01.08.2026 -